KSTL/STL METAR and TAF weather

Enter ICAO airport designator
Station Type Date Time Source
KSTL METAR 2020/01/23 15:08 UTC NOAA

KSTL 231508Z 15008KT 2 1/2SM -RASN BR OVC005 01/M01 A3002 RMK AO2 RAB08PLE08 P0001 T00111006


Station Type Date Time Source
KSTL Decoded METAR 2020/01/23 15:08 UTC NOAA

LAMBERT-ST LOUIS INTERNATIONAL AIRPORT , MO, United States (KSTL) 38-45N 90-22W 171M
Jan 23, 2020 - 10:08 AM EST / 2020.01.23 1508 UTC
Wind: from the SSE (150 degrees) at 9 MPH (8 KT):0
Visibility: 2 1/2 mile(s):0
Sky conditions: overcast
Weather: light rain, snow; mist
Precipitation last hour: 0.01 inches
Temperature: 34.0 F (1.1 C)
Windchill: 26 F (-3 C):1
Dew Point: 30.9 F (-0.6 C)
Relative Humidity: 88%
Pressure (altimeter): 30.02 in. Hg (1016 hPa)
ob: KSTL 231508Z 15008KT 2 1/2SM -RASN BR OVC005 01/M01 A3002 RMK AO2 RAB08PLE08 P0001 T00111006
cycle: 15

Station Type Date Time Source
KSTL TAF 2020/01/23 15:06 UTC NOAA

TAF
AMD KSTL 231505Z 2315/2418 16008KT 3SM -SNPL BR OVC006
FM231700 15009KT 4SM -RASN BR OVC007
FM232200 14006KT 2SM -SN BR OVC003
FM240100 10005KT 1SM -SN BR OVC003
FM241300 28005KT 2SM -SN BR OVC003

Example: see airport list